AWC955 SBEG-MMMX
Flight info
| Callsign | AWC955 |
|---|---|
| Flight time | 6h 12m |
| Altitude | 38000 |
| Route | UKEDA UP527 BRACO DCT DADKA UM549 PULOX UL423 PINDO DCT AUR UW3 ASOKU DCT URVOD DCT OMATO DCT MEBAS UT112 LARLO LARLO3B |
| Aircraft | A320/M-SDE3FGHIRWY/LB1 |
Departure
| Time | 2026-05-04 08:10 |
|---|---|
| Airport | Eduardo Gomes International Airport (SBEG) |
Arrival
| Time | 2026-05-04 14:22 |
|---|---|
| Airport | Mexico City Benito Juárez International Airport (MMMX) |
| Time | Latitude | Longitude | Altitude | Speed | Heading |
|---|---|---|---|---|---|
| 2026-05-04 07:51 | -3.03278 | -60.04657 | 271 ft | 0 kts | 2° |
| 2026-05-04 08:02 | -3.03282 | -60.04657 | 271 ft | 3 kts | 1° |
| 2026-05-04 08:02 | -3.03309 | -60.04656 | 271 ft | 4 kts | 349° |
| 2026-05-04 08:03 | -3.03334 | -60.04649 | 276 ft | 4 kts | 329° |
| 2026-05-04 08:03 | -3.03353 | -60.04632 | 273 ft | 4 kts | 284° |
| 2026-05-04 08:03 | -3.03354 | -60.04619 | 271 ft | 1 kts | 265° |
| 2026-05-04 08:03 | -3.03354 | -60.04618 | 271 ft | 0 kts | 265° |
| 2026-05-04 08:05 | -3.03355 | -60.04624 | 271 ft | 4 kts | 265° |
| 2026-05-04 08:05 | -3.03363 | -60.04691 | 275 ft | 15 kts | 258° |
| 2026-05-04 08:05 | -3.03416 | -60.04818 | 271 ft | 25 kts | 235° |
| 2026-05-04 08:06 | -3.03545 | -60.04946 | 271 ft | 27 kts | 230° |
| 2026-05-04 08:06 | -3.03613 | -60.05128 | 271 ft | 29 kts | 254° |
| 2026-05-04 08:06 | -3.03667 | -60.05331 | 271 ft | 31 kts | 260° |
| 2026-05-04 08:06 | -3.03691 | -60.05552 | 271 ft | 33 kts | 270° |
| 2026-05-04 08:08 | -3.03860 | -60.05058 | 277 ft | 156 kts | 90° |
| 2026-05-04 08:08 | -3.03870 | -60.03838 | 670 ft | 195 kts | 90° |
| 2026-05-04 08:10 | -3.10596 | -60.04593 | 6326 ft | 293 kts | 246° |
| 2026-05-04 08:11 | -3.11411 | -60.06477 | 7175 ft | 296 kts | 244° |
| 2026-05-04 08:11 | -3.13315 | -60.10166 | 8914 ft | 301 kts | 239° |
| 2026-05-04 08:11 | -3.14386 | -60.11976 | 9788 ft | 303 kts | 238° |
| 2026-05-04 08:12 | -3.15307 | -60.13890 | 10523 ft | 308 kts | 251° |
| 2026-05-04 08:12 | -3.15780 | -60.16031 | 10906 ft | 328 kts | 264° |
| 2026-05-04 08:12 | -3.15890 | -60.17328 | 11013 ft | 341 kts | 265° |
| 2026-05-04 08:12 | -3.16077 | -60.19750 | 11378 ft | 355 kts | 265° |
| 2026-05-04 08:13 | -3.16259 | -60.22233 | 11996 ft | 361 kts | 266° |
| 2026-05-04 08:13 | -3.16440 | -60.24698 | 12645 ft | 365 kts | 266° |
| 2026-05-04 08:13 | -3.16626 | -60.27159 | 13292 ft | 368 kts | 265° |
| 2026-05-04 08:13 | -3.16824 | -60.29727 | 13919 ft | 372 kts | 265° |
| 2026-05-04 08:14 | -3.17026 | -60.32321 | 14503 ft | 376 kts | 265° |
| 2026-05-04 08:14 | -3.17232 | -60.34940 | 15077 ft | 379 kts | 265° |
| 2026-05-04 08:14 | -3.17443 | -60.37586 | 15641 ft | 383 kts | 265° |
| 2026-05-04 08:16 | -3.18786 | -60.56772 | 19418 ft | 408 kts | 269° |
| 2026-05-04 08:16 | -3.18800 | -60.59619 | 19927 ft | 411 kts | 270° |
| 2026-05-04 08:16 | -3.18782 | -60.62485 | 20450 ft | 414 kts | 270° |
| 2026-05-04 08:17 | -3.18763 | -60.65372 | 20949 ft | 417 kts | 270° |
| 2026-05-04 08:17 | -3.18756 | -60.68282 | 21457 ft | 420 kts | 270° |
| 2026-05-04 08:17 | -3.18766 | -60.71217 | 21950 ft | 423 kts | 270° |
| 2026-05-04 08:17 | -3.18789 | -60.74173 | 22437 ft | 426 kts | 269° |
| 2026-05-04 08:19 | -3.18990 | -60.95368 | 25237 ft | 444 kts | 270° |
| 2026-05-04 08:19 | -3.19013 | -60.98464 | 25602 ft | 446 kts | 270° |
| 2026-05-04 08:20 | -3.19036 | -61.01573 | 25962 ft | 448 kts | 270° |
| 2026-05-04 08:20 | -3.19061 | -61.04697 | 26317 ft | 450 kts | 269° |
| 2026-05-04 08:20 | -3.19087 | -61.07832 | 26659 ft | 452 kts | 269° |
| 2026-05-04 08:20 | -3.19115 | -61.10982 | 26998 ft | 454 kts | 269° |
| 2026-05-04 08:21 | -3.19145 | -61.14144 | 27334 ft | 456 kts | 269° |
| 2026-05-04 08:21 | -3.19173 | -61.17320 | 27656 ft | 457 kts | 269° |
| 2026-05-04 08:21 | -3.19202 | -61.20513 | 27982 ft | 459 kts | 269° |
| 2026-05-04 08:21 | -3.19229 | -61.23710 | 28315 ft | 461 kts | 270° |
| 2026-05-04 08:22 | -3.19255 | -61.26925 | 28652 ft | 463 kts | 270° |
| 2026-05-04 08:22 | -3.19279 | -61.30161 | 28990 ft | 465 kts | 270° |
| 2026-05-04 08:24 | -3.19462 | -61.53086 | 31079 ft | 476 kts | 270° |
| 2026-05-04 08:24 | -3.19485 | -61.56393 | 31469 ft | 475 kts | 270° |
| 2026-05-04 08:24 | -3.19509 | -61.59696 | 31865 ft | 474 kts | 270° |
| 2026-05-04 08:24 | -3.19537 | -61.62985 | 32256 ft | 473 kts | 269° |
| 2026-05-04 08:25 | -3.19567 | -61.66275 | 32662 ft | 472 kts | 269° |
| 2026-05-04 08:25 | -3.19594 | -61.69554 | 33067 ft | 471 kts | 269° |
| 2026-05-04 08:25 | -3.19618 | -61.72821 | 33489 ft | 470 kts | 270° |
| 2026-05-04 08:25 | -3.19638 | -61.76082 | 33910 ft | 468 kts | 270° |
| 2026-05-04 08:26 | -3.19661 | -61.79297 | 34280 ft | 467 kts | 269° |
| 2026-05-04 08:27 | -3.19829 | -62.01961 | 36632 ft | 463 kts | 269° |
| 2026-05-04 08:28 | -3.19761 | -62.05179 | 36956 ft | 462 kts | 277° |
| 2026-05-04 08:28 | -3.19079 | -62.08311 | 37270 ft | 461 kts | 290° |
| 2026-05-04 08:28 | -3.17717 | -62.11191 | 37574 ft | 459 kts | 303° |
| 2026-05-04 08:28 | -3.15740 | -62.13691 | 37856 ft | 458 kts | 316° |
| 2026-05-04 08:29 | -3.13273 | -62.15690 | 37927 ft | 458 kts | 329° |
| 2026-05-04 08:29 | -3.10468 | -62.17085 | 37934 ft | 457 kts | 340° |
| 2026-05-04 08:31 | -2.86566 | -62.25851 | 37937 ft | 457 kts | 340° |
| 2026-05-04 08:33 | -2.62716 | -62.34624 | 37952 ft | 457 kts | 340° |
| 2026-05-04 08:35 | -2.38852 | -62.43398 | 37955 ft | 457 kts | 340° |
| 2026-05-04 08:35 | -2.32929 | -62.45579 | 37955 ft | 457 kts | 340° |
| 2026-05-04 08:37 | -2.12035 | -62.53262 | 37952 ft | 457 kts | 340° |
| 2026-05-04 08:38 | -2.06127 | -62.55618 | 37957 ft | 457 kts | 331° |
| 2026-05-04 08:38 | -2.01168 | -62.59529 | 37956 ft | 456 kts | 310° |
| 2026-05-04 08:40 | -1.90521 | -62.78900 | 37945 ft | 457 kts | 297° |
| 2026-05-04 08:40 | -1.89059 | -62.81725 | 37950 ft | 457 kts | 297° |
| 2026-05-04 08:41 | -1.86164 | -62.87330 | 37948 ft | 457 kts | 297° |
| 2026-05-04 08:41 | -1.83226 | -62.93019 | 37950 ft | 458 kts | 297° |
| 2026-05-04 08:42 | -1.80302 | -62.98672 | 37954 ft | 458 kts | 297° |
| 2026-05-04 08:42 | -1.77390 | -63.04282 | 37953 ft | 458 kts | 297° |
| 2026-05-04 08:43 | -1.74461 | -63.09932 | 37955 ft | 458 kts | 297° |
| 2026-05-04 08:43 | -1.71534 | -63.15586 | 37950 ft | 458 kts | 297° |
| 2026-05-04 08:44 | -1.68607 | -63.21235 | 37950 ft | 458 kts | 297° |
| 2026-05-04 08:46 | -1.56890 | -63.43848 | 37956 ft | 459 kts | 297° |
| 2026-05-04 08:46 | -1.53954 | -63.49515 | 37958 ft | 459 kts | 297° |
| 2026-05-04 08:47 | -1.51022 | -63.55182 | 37958 ft | 459 kts | 297° |
| 2026-05-04 08:47 | -1.48102 | -63.60806 | 37954 ft | 459 kts | 297° |
| 2026-05-04 08:48 | -1.45167 | -63.66470 | 37958 ft | 459 kts | 297° |
| 2026-05-04 08:48 | -1.42244 | -63.72132 | 37957 ft | 458 kts | 297° |
| 2026-05-04 08:49 | -1.39317 | -63.77789 | 37957 ft | 458 kts | 297° |
| 2026-05-04 08:50 | -1.29063 | -63.97523 | 37949 ft | 458 kts | 297° |
| 2026-05-04 08:51 | -1.26138 | -64.03174 | 37951 ft | 458 kts | 297° |
| 2026-05-04 08:51 | -1.23212 | -64.08842 | 37957 ft | 459 kts | 297° |
| 2026-05-04 08:52 | -1.20278 | -64.14497 | 37961 ft | 458 kts | 297° |
| 2026-05-04 08:52 | -1.17346 | -64.20148 | 37961 ft | 458 kts | 297° |
| 2026-05-04 08:54 | -1.05646 | -64.42702 | 37959 ft | 457 kts | 297° |
| 2026-05-04 08:55 | -1.02723 | -64.48347 | 37963 ft | 457 kts | 297° |
| 2026-05-04 08:55 | -0.99795 | -64.53983 | 37958 ft | 457 kts | 297° |
| 2026-05-04 09:01 | -0.69425 | -65.12508 | 37941 ft | 464 kts | 297° |
| 2026-05-04 09:01 | -0.66465 | -65.18197 | 37949 ft | 465 kts | 298° |
| 2026-05-04 09:02 | -0.63493 | -65.23932 | 37956 ft | 465 kts | 297° |
| 2026-05-04 09:02 | -0.60524 | -65.29669 | 37948 ft | 465 kts | 297° |
| 2026-05-04 09:03 | -0.57546 | -65.35410 | 37954 ft | 465 kts | 298° |
| 2026-05-04 09:03 | -0.54560 | -65.41150 | 37971 ft | 466 kts | 298° |
| 2026-05-04 09:04 | -0.51575 | -65.46901 | 37959 ft | 466 kts | 297° |
| 2026-05-04 09:04 | -0.48595 | -65.52641 | 37969 ft | 466 kts | 297° |
| 2026-05-04 09:05 | -0.45626 | -65.58358 | 37970 ft | 466 kts | 297° |
| 2026-05-04 09:05 | -0.42639 | -65.64116 | 37960 ft | 467 kts | 297° |
| 2026-05-04 09:06 | -0.39651 | -65.69874 | 37970 ft | 467 kts | 297° |
| 2026-05-04 09:08 | -0.27697 | -65.92886 | 37974 ft | 468 kts | 297° |
| 2026-05-04 09:08 | -0.24706 | -65.98652 | 37973 ft | 468 kts | 297° |
| 2026-05-04 09:09 | -0.21722 | -66.04424 | 37970 ft | 468 kts | 297° |
| 2026-05-04 09:09 | -0.18729 | -66.10192 | 37973 ft | 468 kts | 297° |
| 2026-05-04 09:10 | -0.15725 | -66.15961 | 37972 ft | 468 kts | 297° |
| 2026-05-04 09:10 | -0.12741 | -66.21689 | 37970 ft | 468 kts | 298° |
| 2026-05-04 09:11 | -0.09750 | -66.27453 | 37967 ft | 468 kts | 297° |
| 2026-05-04 09:11 | -0.06762 | -66.33223 | 37964 ft | 467 kts | 297° |
| 2026-05-04 09:12 | -0.03762 | -66.38993 | 37973 ft | 468 kts | 297° |
| 2026-05-04 09:14 | 0.08228 | -66.62086 | 37969 ft | 468 kts | 297° |
| 2026-05-04 09:14 | 0.11207 | -66.67820 | 37971 ft | 468 kts | 298° |
| 2026-05-04 09:15 | 0.14213 | -66.73597 | 37972 ft | 469 kts | 298° |
| 2026-05-04 09:15 | 0.17212 | -66.79380 | 37970 ft | 469 kts | 297° |
| 2026-05-04 09:17 | 0.30697 | -67.05347 | 37976 ft | 468 kts | 298° |
| 2026-05-04 09:18 | 0.33694 | -67.11135 | 37968 ft | 468 kts | 297° |
| 2026-05-04 09:18 | 0.36684 | -67.16912 | 37968 ft | 468 kts | 298° |
| 2026-05-04 09:19 | 0.39669 | -67.22650 | 37969 ft | 469 kts | 298° |
| 2026-05-04 09:19 | 0.42676 | -67.28426 | 37974 ft | 469 kts | 298° |
| 2026-05-04 09:20 | 0.45681 | -67.34209 | 37964 ft | 469 kts | 298° |
| 2026-05-04 09:20 | 0.48680 | -67.39998 | 37969 ft | 469 kts | 298° |
| 2026-05-04 09:21 | 0.51685 | -67.45786 | 37970 ft | 469 kts | 298° |
| 2026-05-04 09:21 | 0.54692 | -67.51574 | 37973 ft | 469 kts | 298° |
| 2026-05-04 09:22 | 0.57693 | -67.57363 | 37972 ft | 469 kts | 298° |
| 2026-05-04 09:22 | 0.60677 | -67.63120 | 37974 ft | 469 kts | 298° |
| 2026-05-04 09:23 | 0.63677 | -67.68906 | 37974 ft | 469 kts | 298° |
| 2026-05-04 09:23 | 0.66678 | -67.74693 | 37976 ft | 469 kts | 298° |
| 2026-05-04 09:25 | 0.78700 | -67.97840 | 37975 ft | 469 kts | 298° |
| 2026-05-04 09:26 | 0.81704 | -68.03625 | 37968 ft | 469 kts | 298° |
| 2026-05-04 09:26 | 0.84710 | -68.09416 | 37977 ft | 469 kts | 298° |
| 2026-05-04 09:27 | 0.87695 | -68.15168 | 37969 ft | 470 kts | 298° |
| 2026-05-04 09:27 | 0.90692 | -68.20964 | 37978 ft | 470 kts | 298° |
| 2026-05-04 09:28 | 0.93705 | -68.26764 | 37982 ft | 470 kts | 298° |
| 2026-05-04 09:28 | 0.96718 | -68.32556 | 37980 ft | 470 kts | 298° |
| 2026-05-04 09:29 | 0.99722 | -68.38363 | 37969 ft | 470 kts | 298° |
| 2026-05-04 09:29 | 1.02728 | -68.44168 | 37971 ft | 471 kts | 298° |
| 2026-05-04 09:30 | 1.05741 | -68.49973 | 37979 ft | 471 kts | 298° |
| 2026-05-04 09:30 | 1.08740 | -68.55744 | 37976 ft | 471 kts | 298° |
| 2026-05-04 09:31 | 1.11757 | -68.61554 | 37974 ft | 471 kts | 298° |
| 2026-05-04 09:31 | 1.14771 | -68.67364 | 37975 ft | 471 kts | 298° |
| 2026-05-04 09:32 | 1.17782 | -68.73180 | 37976 ft | 471 kts | 297° |
| 2026-05-04 09:34 | 1.29796 | -68.96349 | 37984 ft | 469 kts | 297° |
| 2026-05-04 09:34 | 1.32800 | -69.02132 | 37984 ft | 469 kts | 297° |
| 2026-05-04 09:35 | 1.35799 | -69.07913 | 37987 ft | 468 kts | 297° |
| 2026-05-04 09:35 | 1.38791 | -69.13692 | 37981 ft | 468 kts | 297° |
| 2026-05-04 09:37 | 1.50706 | -69.36688 | 37985 ft | 465 kts | 297° |
| 2026-05-04 09:38 | 1.53678 | -69.42435 | 37988 ft | 465 kts | 297° |
| 2026-05-04 09:38 | 1.56648 | -69.48167 | 37979 ft | 465 kts | 297° |
| 2026-05-04 09:39 | 1.59627 | -69.53903 | 37988 ft | 465 kts | 297° |
| 2026-05-04 09:39 | 1.62600 | -69.59638 | 37988 ft | 464 kts | 297° |
| 2026-05-04 09:40 | 1.65548 | -69.65327 | 37993 ft | 464 kts | 297° |
| 2026-05-04 09:40 | 1.68516 | -69.71052 | 37987 ft | 464 kts | 297° |
| 2026-05-04 09:42 | 1.80370 | -69.93947 | 37986 ft | 463 kts | 298° |
| 2026-05-04 09:43 | 1.83311 | -69.99626 | 37985 ft | 463 kts | 298° |
| 2026-05-04 09:43 | 1.86267 | -70.05336 | 37988 ft | 463 kts | 298° |
| 2026-05-04 09:44 | 1.89224 | -70.11057 | 37992 ft | 463 kts | 298° |
| 2026-05-04 09:46 | 2.01048 | -70.33899 | 37990 ft | 462 kts | 298° |
| 2026-05-04 09:46 | 2.04004 | -70.39605 | 37986 ft | 462 kts | 298° |
| 2026-05-04 09:47 | 2.06937 | -70.45275 | 37996 ft | 462 kts | 298° |
| 2026-05-04 09:49 | 2.18726 | -70.68083 | 37989 ft | 461 kts | 298° |
| 2026-05-04 09:51 | 2.29018 | -70.87987 | 37988 ft | 461 kts | 298° |
| 2026-05-04 09:51 | 2.31964 | -70.93683 | 37993 ft | 462 kts | 298° |
| 2026-05-04 09:52 | 2.34908 | -70.99396 | 37983 ft | 462 kts | 298° |
| 2026-05-04 09:52 | 2.37857 | -71.05097 | 37987 ft | 462 kts | 298° |
| 2026-05-04 09:53 | 2.40812 | -71.10815 | 37985 ft | 463 kts | 298° |
| 2026-05-04 09:53 | 2.43746 | -71.16498 | 37985 ft | 463 kts | 298° |
| 2026-05-04 09:54 | 2.46700 | -71.22222 | 37986 ft | 464 kts | 298° |
| 2026-05-04 09:54 | 2.49661 | -71.27950 | 37994 ft | 464 kts | 298° |
| 2026-05-04 09:55 | 2.52621 | -71.33681 | 38000 ft | 464 kts | 298° |
| 2026-05-04 09:55 | 2.55581 | -71.39410 | 38000 ft | 463 kts | 298° |
| 2026-05-04 09:56 | 2.58540 | -71.45139 | 37998 ft | 463 kts | 298° |
| 2026-05-04 09:56 | 2.61469 | -71.50818 | 37998 ft | 463 kts | 298° |
| 2026-05-04 09:57 | 2.64417 | -71.56541 | 37995 ft | 462 kts | 298° |
| 2026-05-04 09:57 | 2.67370 | -71.62249 | 37998 ft | 462 kts | 298° |
| 2026-05-04 09:58 | 2.70320 | -71.67957 | 37997 ft | 462 kts | 298° |
| 2026-05-04 09:58 | 2.73265 | -71.73664 | 37999 ft | 462 kts | 298° |
| 2026-05-04 10:00 | 2.84999 | -71.96438 | 37986 ft | 461 kts | 298° |
| 2026-05-04 10:04 | 3.05532 | -72.36284 | 38010 ft | 461 kts | 298° |
| 2026-05-04 10:04 | 3.08467 | -72.41982 | 38021 ft | 461 kts | 298° |
| 2026-05-04 10:05 | 3.11406 | -72.47683 | 38023 ft | 461 kts | 298° |
| 2026-05-04 10:05 | 3.14446 | -72.53279 | 38022 ft | 460 kts | 306° |
| 2026-05-04 10:06 | 3.18431 | -72.58258 | 38038 ft | 458 kts | 311° |
| 2026-05-04 10:06 | 3.22488 | -72.63165 | 38042 ft | 458 kts | 311° |
| 2026-05-04 10:08 | 3.36718 | -72.80395 | 38069 ft | 458 kts | 311° |
| 2026-05-04 10:08 | 3.40782 | -72.85312 | 38070 ft | 458 kts | 311° |
| 2026-05-04 10:09 | 3.44814 | -72.90188 | 38078 ft | 458 kts | 311° |
| 2026-05-04 10:09 | 3.48876 | -72.95096 | 38086 ft | 457 kts | 310° |
| 2026-05-04 10:10 | 3.52923 | -73.00005 | 38087 ft | 457 kts | 310° |
| 2026-05-04 10:10 | 3.56969 | -73.04912 | 38090 ft | 457 kts | 311° |
| 2026-05-04 10:11 | 3.61032 | -73.09818 | 38103 ft | 457 kts | 311° |
| 2026-05-04 10:11 | 3.65089 | -73.14721 | 38093 ft | 458 kts | 310° |
| 2026-05-04 10:12 | 3.69139 | -73.19636 | 38115 ft | 458 kts | 310° |
| 2026-05-04 10:12 | 3.73168 | -73.24520 | 38117 ft | 458 kts | 310° |
| 2026-05-04 10:13 | 3.77228 | -73.29427 | 38122 ft | 458 kts | 310° |
| 2026-05-04 10:13 | 3.81289 | -73.34352 | 38130 ft | 458 kts | 310° |
| 2026-05-04 10:14 | 3.85341 | -73.39271 | 38145 ft | 458 kts | 310° |
| 2026-05-04 10:16 | 4.01547 | -73.58922 | 38053 ft | 459 kts | 310° |
| 2026-05-04 10:16 | 4.05609 | -73.63853 | 38024 ft | 459 kts | 310° |
| 2026-05-04 10:17 | 4.09677 | -73.68792 | 38015 ft | 459 kts | 310° |
| 2026-05-04 10:19 | 4.23723 | -73.85825 | 38189 ft | 461 kts | 310° |
| 2026-05-04 10:19 | 4.25766 | -73.88304 | 38229 ft | 461 kts | 310° |
| 2026-05-04 10:19 | 4.29845 | -73.93255 | 38313 ft | 461 kts | 310° |
| 2026-05-04 10:20 | 4.33234 | -73.97377 | 38347 ft | 461 kts | 310° |
| 2026-05-04 10:20 | 4.37273 | -74.02292 | 38371 ft | 461 kts | 310° |
| 2026-05-04 10:21 | 4.42022 | -74.08055 | 38369 ft | 461 kts | 310° |
| 2026-05-04 10:21 | 4.45438 | -74.12199 | 38361 ft | 461 kts | 310° |
| 2026-05-04 10:22 | 4.51520 | -74.19604 | 38363 ft | 460 kts | 310° |
| 2026-05-04 10:23 | 4.55585 | -74.24557 | 38364 ft | 460 kts | 310° |
| 2026-05-04 10:25 | 4.71694 | -74.44414 | 38289 ft | 460 kts | 309° |
| 2026-05-04 10:25 | 4.75712 | -74.49397 | 38255 ft | 460 kts | 309° |
| 2026-05-04 10:26 | 4.79738 | -74.54378 | 38227 ft | 460 kts | 309° |
| 2026-05-04 10:26 | 4.83755 | -74.59366 | 38204 ft | 459 kts | 309° |
| 2026-05-04 10:27 | 4.87767 | -74.64352 | 38193 ft | 459 kts | 309° |
| 2026-05-04 10:27 | 4.91751 | -74.69347 | 38176 ft | 459 kts | 308° |
| 2026-05-04 10:28 | 4.95484 | -74.74497 | 38128 ft | 459 kts | 305° |
| 2026-05-04 10:28 | 4.99103 | -74.79772 | 38089 ft | 459 kts | 305° |
| 2026-05-04 10:29 | 5.02756 | -74.85033 | 38056 ft | 460 kts | 306° |
| 2026-05-04 10:29 | 5.06466 | -74.90259 | 38028 ft | 459 kts | 306° |
| 2026-05-04 10:30 | 5.10187 | -74.95470 | 38016 ft | 460 kts | 306° |
| 2026-05-04 10:30 | 5.13906 | -75.00698 | 38030 ft | 460 kts | 306° |
| 2026-05-04 10:31 | 5.17584 | -75.05896 | 38054 ft | 460 kts | 306° |
| 2026-05-04 10:32 | 5.30447 | -75.24062 | 38179 ft | 460 kts | 306° |
| 2026-05-04 10:33 | 5.34147 | -75.29302 | 38169 ft | 460 kts | 306° |
| 2026-05-04 10:33 | 5.37826 | -75.34501 | 38157 ft | 460 kts | 306° |
| 2026-05-04 10:34 | 5.41525 | -75.39734 | 38155 ft | 460 kts | 306° |
| 2026-05-04 10:34 | 5.45227 | -75.44967 | 38133 ft | 460 kts | 306° |
| 2026-05-04 10:35 | 5.48928 | -75.50199 | 38116 ft | 460 kts | 306° |
| 2026-05-04 10:35 | 5.52628 | -75.55438 | 38114 ft | 460 kts | 306° |
| 2026-05-04 10:36 | 5.56324 | -75.60678 | 38104 ft | 460 kts | 306° |
| 2026-05-04 10:36 | 5.60018 | -75.65916 | 38095 ft | 460 kts | 306° |
| 2026-05-04 10:37 | 5.63720 | -75.71149 | 38088 ft | 460 kts | 306° |
| 2026-05-04 10:37 | 5.67396 | -75.76348 | 38079 ft | 459 kts | 306° |
| 2026-05-04 10:39 | 5.76574 | -75.93164 | 38058 ft | 459 kts | 295° |
| 2026-05-04 10:39 | 5.77947 | -75.96052 | 38056 ft | 458 kts | 295° |
| 2026-05-04 10:40 | 5.80691 | -76.01828 | 38049 ft | 458 kts | 295° |
| 2026-05-04 10:40 | 5.83422 | -76.07605 | 38044 ft | 458 kts | 295° |
| 2026-05-04 10:41 | 5.86135 | -76.13338 | 38033 ft | 457 kts | 295° |
| 2026-05-04 10:41 | 5.88860 | -76.19105 | 38027 ft | 457 kts | 295° |
| 2026-05-04 10:42 | 5.91581 | -76.24863 | 38027 ft | 456 kts | 295° |
| 2026-05-04 10:42 | 5.94300 | -76.30610 | 38020 ft | 455 kts | 295° |
| 2026-05-04 10:43 | 5.97016 | -76.36354 | 38003 ft | 455 kts | 295° |
| 2026-05-04 10:45 | 6.07820 | -76.59265 | 37965 ft | 454 kts | 294° |
| 2026-05-04 10:45 | 6.10517 | -76.64999 | 37957 ft | 454 kts | 294° |
| 2026-05-04 10:46 | 6.13223 | -76.70730 | 37948 ft | 454 kts | 294° |
| 2026-05-04 10:46 | 6.15929 | -76.76465 | 37947 ft | 454 kts | 294° |
| 2026-05-04 10:47 | 6.18631 | -76.82191 | 37947 ft | 454 kts | 294° |
| 2026-05-04 10:47 | 6.21315 | -76.87893 | 37950 ft | 454 kts | 294° |
| 2026-05-04 10:49 | 6.32135 | -77.10892 | 37935 ft | 456 kts | 294° |
| 2026-05-04 10:50 | 6.34829 | -77.16611 | 37928 ft | 456 kts | 294° |
| 2026-05-04 10:52 | 6.45681 | -77.39710 | 37905 ft | 458 kts | 294° |
| 2026-05-04 10:52 | 6.48375 | -77.45466 | 37920 ft | 458 kts | 294° |
| 2026-05-04 10:54 | 6.59280 | -77.68705 | 37929 ft | 460 kts | 294° |
| 2026-05-04 10:56 | 6.70168 | -77.91981 | 37927 ft | 461 kts | 294° |
| 2026-05-04 10:57 | 6.72904 | -77.97807 | 37930 ft | 461 kts | 294° |
| 2026-05-04 10:57 | 6.75632 | -78.03644 | 37924 ft | 461 kts | 294° |
| 2026-05-04 10:58 | 6.78335 | -78.09447 | 37922 ft | 461 kts | 294° |
| 2026-05-04 10:58 | 6.81058 | -78.15282 | 37922 ft | 461 kts | 293° |
| 2026-05-04 10:59 | 6.83802 | -78.21120 | 37918 ft | 461 kts | 296° |
| 2026-05-04 10:59 | 6.87041 | -78.26700 | 37919 ft | 462 kts | 299° |
| 2026-05-04 11:00 | 6.90325 | -78.32265 | 37919 ft | 462 kts | 299° |
| 2026-05-04 11:02 | 7.03377 | -78.54449 | 37920 ft | 461 kts | 299° |
| 2026-05-04 11:05 | 7.27913 | -78.96208 | 37905 ft | 464 kts | 300° |
| 2026-05-04 11:06 | 7.31195 | -79.01803 | 37911 ft | 464 kts | 300° |
| 2026-05-04 11:06 | 7.34463 | -79.07370 | 37920 ft | 464 kts | 300° |
| 2026-05-04 11:10 | 7.57430 | -79.46587 | 37914 ft | 466 kts | 300° |
| 2026-05-04 11:12 | 7.70603 | -79.69119 | 37917 ft | 467 kts | 300° |
| 2026-05-04 11:12 | 7.73896 | -79.74760 | 37921 ft | 467 kts | 300° |
| 2026-05-04 11:13 | 7.77166 | -79.80363 | 37922 ft | 466 kts | 300° |
| 2026-05-04 11:13 | 7.80458 | -79.85997 | 37920 ft | 466 kts | 300° |
| 2026-05-04 11:14 | 7.83748 | -79.91629 | 37919 ft | 466 kts | 300° |
| 2026-05-04 11:16 | 7.96864 | -80.14142 | 37926 ft | 466 kts | 300° |
| 2026-05-04 11:16 | 8.00142 | -80.19773 | 37919 ft | 465 kts | 301° |
| 2026-05-04 11:17 | 8.03419 | -80.25400 | 37921 ft | 465 kts | 301° |
| 2026-05-04 11:19 | 8.16480 | -80.47873 | 37922 ft | 465 kts | 301° |
| 2026-05-04 11:19 | 8.19748 | -80.53501 | 37927 ft | 464 kts | 301° |
| 2026-05-04 11:20 | 8.23015 | -80.59122 | 37926 ft | 464 kts | 301° |
| 2026-05-04 11:20 | 8.26278 | -80.64743 | 37926 ft | 464 kts | 301° |
| 2026-05-04 11:22 | 8.39306 | -80.87220 | 37947 ft | 464 kts | 301° |
| 2026-05-04 11:23 | 8.42567 | -80.92846 | 37960 ft | 464 kts | 301° |
| 2026-05-04 11:25 | 8.53934 | -81.12503 | 37961 ft | 464 kts | 301° |
| 2026-05-04 11:25 | 8.57183 | -81.18126 | 37969 ft | 463 kts | 301° |
| 2026-05-04 11:27 | 8.71808 | -81.43432 | 37977 ft | 463 kts | 301° |
| 2026-05-04 11:28 | 8.75047 | -81.49057 | 37981 ft | 463 kts | 301° |
| 2026-05-04 11:28 | 8.78268 | -81.54652 | 37973 ft | 463 kts | 301° |
| 2026-05-04 11:29 | 8.81509 | -81.60276 | 37976 ft | 463 kts | 301° |
| 2026-05-04 11:29 | 8.84754 | -81.65911 | 37975 ft | 463 kts | 301° |
| 2026-05-04 11:33 | 9.07371 | -82.05262 | 37962 ft | 463 kts | 300° |
| 2026-05-04 11:33 | 9.10581 | -82.10853 | 37960 ft | 462 kts | 300° |
| 2026-05-04 11:34 | 9.13813 | -82.16481 | 37965 ft | 462 kts | 300° |
| 2026-05-04 11:34 | 9.17041 | -82.22108 | 37967 ft | 462 kts | 300° |
| 2026-05-04 11:35 | 9.20267 | -82.27740 | 37972 ft | 462 kts | 300° |
| 2026-05-04 11:35 | 9.23491 | -82.33376 | 37972 ft | 462 kts | 300° |
| 2026-05-04 11:36 | 9.26717 | -82.39003 | 37976 ft | 462 kts | 300° |
| 2026-05-04 11:36 | 9.29929 | -82.44593 | 37976 ft | 462 kts | 300° |
| 2026-05-04 11:37 | 9.33144 | -82.50225 | 37987 ft | 462 kts | 300° |
| 2026-05-04 11:37 | 9.36356 | -82.55862 | 37983 ft | 462 kts | 300° |
| 2026-05-04 11:38 | 9.39577 | -82.61483 | 37989 ft | 462 kts | 300° |
| 2026-05-04 11:38 | 9.42800 | -82.67107 | 37988 ft | 462 kts | 300° |
| 2026-05-04 11:39 | 9.46009 | -82.72740 | 37993 ft | 462 kts | 300° |
| 2026-05-04 11:41 | 9.57242 | -82.92395 | 37994 ft | 461 kts | 300° |
| 2026-05-04 11:41 | 9.60489 | -82.98003 | 38000 ft | 461 kts | 300° |
| 2026-05-04 11:42 | 9.63738 | -83.03610 | 38002 ft | 461 kts | 300° |
| 2026-05-04 11:42 | 9.66971 | -83.09218 | 38001 ft | 461 kts | 300° |
| 2026-05-04 11:43 | 9.70191 | -83.14823 | 38013 ft | 460 kts | 300° |
| 2026-05-04 11:43 | 9.73417 | -83.20428 | 38013 ft | 460 kts | 300° |
| 2026-05-04 11:44 | 9.76615 | -83.25985 | 38014 ft | 460 kts | 300° |
| 2026-05-04 11:44 | 9.79840 | -83.31578 | 38020 ft | 459 kts | 300° |
| 2026-05-04 11:45 | 9.83059 | -83.37169 | 38016 ft | 459 kts | 300° |
| 2026-05-04 11:45 | 9.86274 | -83.42753 | 38019 ft | 459 kts | 300° |
| 2026-05-04 11:46 | 9.88941 | -83.47396 | 38022 ft | 459 kts | 300° |
| 2026-05-04 11:46 | 9.92152 | -83.52989 | 38014 ft | 459 kts | 300° |
| 2026-05-04 11:47 | 9.95883 | -83.59487 | 38012 ft | 459 kts | 300° |
| 2026-05-04 11:47 | 9.98566 | -83.64170 | 38010 ft | 459 kts | 300° |
| 2026-05-04 11:48 | 10.01773 | -83.69774 | 38004 ft | 459 kts | 300° |
| 2026-05-04 11:48 | 10.04982 | -83.75369 | 38007 ft | 459 kts | 300° |
| 2026-05-04 11:49 | 10.08176 | -83.80928 | 38009 ft | 459 kts | 300° |
| 2026-05-04 11:49 | 10.11392 | -83.86531 | 38001 ft | 459 kts | 300° |
| 2026-05-04 11:50 | 10.14596 | -83.92132 | 37999 ft | 459 kts | 300° |
| 2026-05-04 11:50 | 10.15659 | -83.93994 | 38005 ft | 459 kts | 300° |
| 2026-05-04 11:51 | 10.17314 | -83.96764 | 38007 ft | 459 kts | 301° |
| 2026-05-04 11:51 | 10.20540 | -84.02352 | 38015 ft | 459 kts | 299° |
| 2026-05-04 11:52 | 10.23686 | -84.07988 | 38016 ft | 459 kts | 299° |
| 2026-05-04 11:52 | 10.26841 | -84.13577 | 38015 ft | 459 kts | 300° |
| 2026-05-04 11:53 | 10.30047 | -84.19181 | 38009 ft | 459 kts | 300° |
| 2026-05-04 11:53 | 10.33250 | -84.24784 | 37994 ft | 458 kts | 300° |
| 2026-05-04 11:55 | 10.46021 | -84.47181 | 37975 ft | 458 kts | 300° |
| 2026-05-04 11:56 | 10.49196 | -84.52749 | 37978 ft | 458 kts | 300° |
| 2026-05-04 11:56 | 10.52383 | -84.58359 | 37983 ft | 458 kts | 299° |
| 2026-05-04 11:57 | 10.55563 | -84.63969 | 37971 ft | 458 kts | 299° |
| 2026-05-04 11:57 | 10.58752 | -84.69578 | 37971 ft | 458 kts | 299° |
| 2026-05-04 11:58 | 10.61940 | -84.75179 | 37973 ft | 458 kts | 299° |
| 2026-05-04 11:58 | 10.65129 | -84.80782 | 37971 ft | 458 kts | 299° |
| 2026-05-04 11:59 | 10.68317 | -84.86392 | 37970 ft | 458 kts | 299° |
| 2026-05-04 11:59 | 10.71493 | -84.91994 | 37971 ft | 457 kts | 299° |
| 2026-05-04 12:00 | 10.74669 | -84.97598 | 37968 ft | 457 kts | 299° |
| 2026-05-04 12:00 | 10.77819 | -85.03156 | 37969 ft | 457 kts | 299° |
| 2026-05-04 12:01 | 10.80984 | -85.08748 | 37967 ft | 456 kts | 299° |
| 2026-05-04 12:02 | 10.92051 | -85.28316 | 37954 ft | 456 kts | 299° |
| 2026-05-04 12:03 | 10.95214 | -85.33908 | 37948 ft | 456 kts | 299° |
| 2026-05-04 12:03 | 10.98374 | -85.39494 | 37951 ft | 455 kts | 299° |
| 2026-05-04 12:04 | 11.01529 | -85.45081 | 37955 ft | 455 kts | 299° |
| 2026-05-04 12:04 | 11.04655 | -85.50635 | 37945 ft | 455 kts | 299° |
| 2026-05-04 12:05 | 11.07808 | -85.56229 | 37943 ft | 455 kts | 299° |
| 2026-05-04 12:05 | 11.10961 | -85.61810 | 37941 ft | 455 kts | 299° |
| 2026-05-04 12:06 | 11.14109 | -85.67397 | 37936 ft | 454 kts | 299° |
| 2026-05-04 12:06 | 11.17250 | -85.72983 | 37927 ft | 454 kts | 299° |
| 2026-05-04 12:07 | 11.20383 | -85.78563 | 37930 ft | 454 kts | 299° |
| 2026-05-04 12:07 | 11.23508 | -85.84110 | 37928 ft | 454 kts | 299° |
| 2026-05-04 12:08 | 11.26658 | -85.89683 | 37925 ft | 454 kts | 299° |
| 2026-05-04 12:08 | 11.29806 | -85.95257 | 37921 ft | 454 kts | 299° |
| 2026-05-04 12:09 | 11.32942 | -86.00826 | 37925 ft | 453 kts | 299° |
| 2026-05-04 12:09 | 11.36086 | -86.06400 | 37926 ft | 453 kts | 299° |
| 2026-05-04 12:10 | 11.39200 | -86.11928 | 37922 ft | 453 kts | 299° |
| 2026-05-04 12:10 | 11.42334 | -86.17494 | 37926 ft | 453 kts | 299° |
| 2026-05-04 12:11 | 11.45465 | -86.23059 | 37932 ft | 452 kts | 299° |
| 2026-05-04 12:11 | 11.48594 | -86.28616 | 37933 ft | 452 kts | 299° |
| 2026-05-04 12:12 | 11.51721 | -86.34185 | 37933 ft | 452 kts | 299° |
| 2026-05-04 12:12 | 11.54818 | -86.39711 | 37936 ft | 452 kts | 299° |
| 2026-05-04 12:14 | 11.67295 | -86.61949 | 37938 ft | 451 kts | 298° |
| 2026-05-04 12:15 | 11.70408 | -86.67512 | 37938 ft | 451 kts | 299° |
| 2026-05-04 12:15 | 11.73520 | -86.73076 | 37939 ft | 451 kts | 299° |
| 2026-05-04 12:16 | 11.76610 | -86.78601 | 37938 ft | 452 kts | 299° |
| 2026-05-04 12:16 | 11.79723 | -86.84171 | 37937 ft | 452 kts | 299° |
| 2026-05-04 12:17 | 11.82831 | -86.89741 | 37943 ft | 452 kts | 299° |
| 2026-05-04 12:17 | 11.85945 | -86.95312 | 37939 ft | 452 kts | 299° |
| 2026-05-04 12:18 | 11.89056 | -87.00886 | 37939 ft | 452 kts | 299° |
| 2026-05-04 12:18 | 11.92164 | -87.06454 | 37938 ft | 452 kts | 299° |
| 2026-05-04 12:19 | 11.95252 | -87.11994 | 37943 ft | 451 kts | 299° |
| 2026-05-04 12:19 | 11.98353 | -87.17568 | 37941 ft | 451 kts | 299° |
| 2026-05-04 12:20 | 12.01460 | -87.23138 | 37945 ft | 451 kts | 299° |
| 2026-05-04 12:20 | 12.04556 | -87.28695 | 37945 ft | 450 kts | 299° |
| 2026-05-04 12:21 | 12.07651 | -87.34260 | 37948 ft | 450 kts | 299° |
| 2026-05-04 12:21 | 12.10734 | -87.39818 | 37950 ft | 450 kts | 298° |
| 2026-05-04 12:22 | 12.13815 | -87.45375 | 37943 ft | 449 kts | 298° |
| 2026-05-04 12:22 | 12.16875 | -87.50886 | 37948 ft | 449 kts | 298° |
| 2026-05-04 12:23 | 12.19952 | -87.56431 | 37941 ft | 449 kts | 299° |
| 2026-05-04 12:23 | 12.23033 | -87.61980 | 37944 ft | 448 kts | 298° |
| 2026-05-04 12:24 | 12.26105 | -87.67525 | 37942 ft | 448 kts | 298° |
| 2026-05-04 12:24 | 12.29173 | -87.73076 | 37939 ft | 448 kts | 298° |
| 2026-05-04 12:25 | 12.32235 | -87.78633 | 37943 ft | 449 kts | 298° |
| 2026-05-04 12:25 | 12.35316 | -87.84180 | 37939 ft | 449 kts | 298° |
| 2026-05-04 12:26 | 12.38378 | -87.89700 | 37935 ft | 449 kts | 298° |
| 2026-05-04 12:26 | 12.41449 | -87.95261 | 37931 ft | 449 kts | 298° |
| 2026-05-04 12:27 | 12.44515 | -88.00824 | 37930 ft | 449 kts | 298° |
| 2026-05-04 12:27 | 12.47583 | -88.06388 | 37942 ft | 449 kts | 298° |
| 2026-05-04 12:28 | 12.50652 | -88.11963 | 37939 ft | 449 kts | 298° |
| 2026-05-04 12:28 | 12.53724 | -88.17528 | 37934 ft | 449 kts | 298° |
| 2026-05-04 12:29 | 12.56580 | -88.22706 | 37934 ft | 449 kts | 298° |
| 2026-05-04 12:29 | 12.59654 | -88.28285 | 37936 ft | 449 kts | 298° |
| 2026-05-04 12:30 | 12.62698 | -88.33813 | 37942 ft | 449 kts | 298° |
| 2026-05-04 12:30 | 12.65765 | -88.39382 | 37936 ft | 449 kts | 298° |
| 2026-05-04 12:31 | 12.68822 | -88.44956 | 37935 ft | 449 kts | 298° |
| 2026-05-04 12:31 | 12.71876 | -88.50518 | 37935 ft | 448 kts | 298° |
| 2026-05-04 12:32 | 12.76459 | -88.58872 | 37934 ft | 448 kts | 298° |
| 2026-05-04 12:33 | 12.79485 | -88.64407 | 37938 ft | 448 kts | 298° |
| 2026-05-04 12:33 | 12.82517 | -88.69979 | 37939 ft | 448 kts | 298° |
| 2026-05-04 12:34 | 12.85551 | -88.75545 | 37938 ft | 447 kts | 298° |
| 2026-05-04 12:34 | 12.88587 | -88.81110 | 37930 ft | 447 kts | 298° |
| 2026-05-04 12:35 | 12.91619 | -88.86669 | 37935 ft | 447 kts | 298° |
| 2026-05-04 12:35 | 12.94626 | -88.92195 | 37933 ft | 447 kts | 298° |
| 2026-05-04 12:36 | 12.97642 | -88.97766 | 37935 ft | 447 kts | 298° |
| 2026-05-04 12:36 | 13.00666 | -89.03323 | 37930 ft | 447 kts | 301° |
| 2026-05-04 12:37 | 13.04656 | -89.08177 | 37925 ft | 447 kts | 317° |
| 2026-05-04 12:37 | 13.09256 | -89.12487 | 37919 ft | 448 kts | 316° |
| 2026-05-04 12:38 | 13.13838 | -89.16811 | 37916 ft | 448 kts | 316° |
| 2026-05-04 12:38 | 13.18387 | -89.21115 | 37920 ft | 448 kts | 316° |
| 2026-05-04 12:39 | 13.22964 | -89.25448 | 37916 ft | 448 kts | 316° |
| 2026-05-04 12:39 | 13.27544 | -89.29776 | 37914 ft | 448 kts | 316° |
| 2026-05-04 12:40 | 13.32131 | -89.34110 | 37918 ft | 448 kts | 316° |
| 2026-05-04 12:40 | 13.36709 | -89.38442 | 37923 ft | 448 kts | 316° |
| 2026-05-04 12:41 | 13.41291 | -89.42780 | 37925 ft | 448 kts | 316° |
| 2026-05-04 12:41 | 13.45870 | -89.47118 | 37939 ft | 448 kts | 316° |
| 2026-05-04 12:42 | 13.50422 | -89.51430 | 37950 ft | 448 kts | 316° |
| 2026-05-04 12:42 | 13.55004 | -89.55772 | 37958 ft | 448 kts | 316° |
| 2026-05-04 12:43 | 13.59591 | -89.60115 | 37972 ft | 448 kts | 316° |
| 2026-05-04 12:43 | 13.64174 | -89.64459 | 37978 ft | 448 kts | 316° |
| 2026-05-04 12:44 | 13.68750 | -89.68807 | 37988 ft | 448 kts | 316° |
| 2026-05-04 12:44 | 13.73321 | -89.73165 | 37997 ft | 448 kts | 316° |
| 2026-05-04 12:45 | 13.77866 | -89.77494 | 38010 ft | 448 kts | 316° |
| 2026-05-04 12:45 | 13.82446 | -89.81841 | 38018 ft | 448 kts | 316° |
| 2026-05-04 12:46 | 13.87030 | -89.86197 | 38023 ft | 448 kts | 316° |
| 2026-05-04 12:46 | 13.91601 | -89.90556 | 38033 ft | 448 kts | 315° |
| 2026-05-04 12:47 | 13.96175 | -89.94917 | 38046 ft | 448 kts | 315° |
| 2026-05-04 12:47 | 14.00716 | -89.99250 | 38060 ft | 448 kts | 315° |
| 2026-05-04 12:48 | 14.05283 | -90.03611 | 38074 ft | 448 kts | 315° |
| 2026-05-04 12:48 | 14.09859 | -90.07971 | 38089 ft | 448 kts | 315° |
| 2026-05-04 12:49 | 14.14425 | -90.12339 | 38098 ft | 448 kts | 315° |
| 2026-05-04 12:49 | 14.18986 | -90.16711 | 38117 ft | 448 kts | 315° |
| 2026-05-04 12:50 | 14.23555 | -90.21082 | 38129 ft | 448 kts | 315° |
| 2026-05-04 12:50 | 14.28125 | -90.25443 | 38147 ft | 448 kts | 315° |
| 2026-05-04 12:51 | 14.32691 | -90.29805 | 38175 ft | 448 kts | 315° |
| 2026-05-04 12:51 | 14.37250 | -90.34172 | 38202 ft | 447 kts | 315° |
| 2026-05-04 12:52 | 14.41778 | -90.38519 | 38221 ft | 447 kts | 315° |
| 2026-05-04 12:52 | 14.46327 | -90.42886 | 38231 ft | 447 kts | 315° |
| 2026-05-04 12:53 | 14.50883 | -90.47261 | 38233 ft | 447 kts | 315° |
| 2026-05-04 12:53 | 14.55431 | -90.51617 | 38232 ft | 446 kts | 316° |
| 2026-05-04 12:54 | 14.60575 | -90.55215 | 38234 ft | 449 kts | 329° |
| 2026-05-04 12:54 | 14.66071 | -90.58283 | 38232 ft | 449 kts | 329° |
| 2026-05-04 12:55 | 14.71567 | -90.61361 | 38237 ft | 449 kts | 329° |
| 2026-05-04 12:55 | 14.77050 | -90.64437 | 38237 ft | 449 kts | 329° |
| 2026-05-04 12:56 | 14.82500 | -90.67496 | 38238 ft | 449 kts | 329° |
| 2026-05-04 12:56 | 14.87982 | -90.70568 | 38247 ft | 448 kts | 329° |
| 2026-05-04 12:57 | 14.93464 | -90.73647 | 38248 ft | 448 kts | 329° |
| 2026-05-04 12:57 | 14.98939 | -90.76722 | 38245 ft | 448 kts | 329° |
| 2026-05-04 12:58 | 15.04412 | -90.79801 | 38245 ft | 448 kts | 329° |
| 2026-05-04 12:58 | 15.09878 | -90.82883 | 38245 ft | 447 kts | 329° |
| 2026-05-04 12:59 | 15.15309 | -90.85941 | 38240 ft | 447 kts | 329° |
| 2026-05-04 12:59 | 15.20777 | -90.89018 | 38247 ft | 447 kts | 329° |
| 2026-05-04 13:00 | 15.26235 | -90.92092 | 38242 ft | 447 kts | 329° |
| 2026-05-04 13:00 | 15.31693 | -90.95165 | 38240 ft | 446 kts | 329° |
| 2026-05-04 13:01 | 15.37113 | -90.98220 | 38239 ft | 446 kts | 329° |
| 2026-05-04 13:01 | 15.42562 | -91.01294 | 38230 ft | 446 kts | 329° |
| 2026-05-04 13:02 | 15.48009 | -91.04370 | 38229 ft | 446 kts | 329° |
| 2026-05-04 13:02 | 15.53451 | -91.07443 | 38219 ft | 445 kts | 329° |
| 2026-05-04 13:03 | 15.58893 | -91.10510 | 38217 ft | 445 kts | 329° |
| 2026-05-04 13:03 | 15.64326 | -91.13594 | 38215 ft | 445 kts | 329° |
| 2026-05-04 13:04 | 15.69722 | -91.16663 | 38203 ft | 445 kts | 329° |
| 2026-05-04 13:04 | 15.75150 | -91.19741 | 38195 ft | 445 kts | 329° |
| 2026-05-04 13:05 | 15.80585 | -91.22819 | 38186 ft | 445 kts | 329° |
| 2026-05-04 13:05 | 15.86016 | -91.25891 | 38172 ft | 444 kts | 329° |
| 2026-05-04 13:06 | 15.90524 | -91.28453 | 38163 ft | 444 kts | 329° |
| 2026-05-04 13:06 | 15.95939 | -91.31542 | 38151 ft | 444 kts | 329° |
| 2026-05-04 13:07 | 16.01361 | -91.34630 | 38139 ft | 444 kts | 329° |
| 2026-05-04 13:07 | 16.06355 | -91.38312 | 38134 ft | 439 kts | 312° |
| 2026-05-04 13:08 | 16.09820 | -91.43454 | 38131 ft | 434 kts | 293° |
| 2026-05-04 13:08 | 16.12205 | -91.49213 | 38128 ft | 434 kts | 291° |
| 2026-05-04 13:09 | 16.14573 | -91.54939 | 38127 ft | 434 kts | 291° |
| 2026-05-04 13:09 | 16.16946 | -91.60700 | 38128 ft | 434 kts | 291° |
| 2026-05-04 13:10 | 16.19325 | -91.66477 | 38132 ft | 434 kts | 291° |
| 2026-05-04 13:10 | 16.21704 | -91.72243 | 38132 ft | 434 kts | 291° |
| 2026-05-04 13:11 | 16.24083 | -91.78010 | 38137 ft | 434 kts | 291° |
| 2026-05-04 13:11 | 16.26445 | -91.83732 | 38135 ft | 433 kts | 291° |
| 2026-05-04 13:12 | 16.28819 | -91.89494 | 38140 ft | 433 kts | 291° |
| 2026-05-04 13:12 | 16.31183 | -91.95263 | 38141 ft | 433 kts | 291° |
| 2026-05-04 13:13 | 16.33540 | -92.01023 | 38146 ft | 433 kts | 291° |
| 2026-05-04 13:13 | 16.35900 | -92.06790 | 38149 ft | 432 kts | 291° |
| 2026-05-04 13:14 | 16.38256 | -92.12551 | 38140 ft | 432 kts | 291° |
| 2026-05-04 13:14 | 16.40613 | -92.18308 | 38139 ft | 432 kts | 291° |
| 2026-05-04 13:15 | 16.42965 | -92.24061 | 38144 ft | 432 kts | 291° |
| 2026-05-04 13:15 | 16.45300 | -92.29781 | 38138 ft | 432 kts | 291° |
| 2026-05-04 13:16 | 16.47646 | -92.35536 | 38136 ft | 431 kts | 291° |
| 2026-05-04 13:16 | 16.49987 | -92.41289 | 38135 ft | 431 kts | 291° |
| 2026-05-04 13:17 | 16.52327 | -92.47034 | 38125 ft | 431 kts | 291° |
| 2026-05-04 13:17 | 16.54663 | -92.52782 | 38121 ft | 430 kts | 291° |
| 2026-05-04 13:18 | 16.56993 | -92.58521 | 38120 ft | 430 kts | 291° |
| 2026-05-04 13:18 | 16.59325 | -92.64261 | 38115 ft | 430 kts | 291° |
| 2026-05-04 13:19 | 16.61641 | -92.69961 | 38112 ft | 429 kts | 291° |
| 2026-05-04 13:19 | 16.63962 | -92.75698 | 38105 ft | 429 kts | 291° |
| 2026-05-04 13:20 | 16.66282 | -92.81431 | 38101 ft | 429 kts | 291° |
| 2026-05-04 13:20 | 16.68600 | -92.87161 | 38102 ft | 429 kts | 291° |
| 2026-05-04 13:21 | 16.70913 | -92.92892 | 38105 ft | 429 kts | 291° |
| 2026-05-04 13:21 | 16.73231 | -92.98621 | 38104 ft | 428 kts | 291° |
| 2026-05-04 13:22 | 16.75543 | -93.04346 | 38106 ft | 428 kts | 291° |
| 2026-05-04 13:22 | 16.77835 | -93.10039 | 38097 ft | 428 kts | 291° |
| 2026-05-04 13:23 | 16.80134 | -93.15760 | 38091 ft | 428 kts | 291° |
| 2026-05-04 13:23 | 16.82435 | -93.21491 | 38091 ft | 427 kts | 290° |
| 2026-05-04 13:24 | 16.84731 | -93.27207 | 38085 ft | 427 kts | 291° |
| 2026-05-04 13:24 | 16.87038 | -93.32931 | 38080 ft | 427 kts | 290° |
| 2026-05-04 13:25 | 16.90058 | -93.41629 | 38081 ft | 426 kts | 286° |
| 2026-05-04 13:25 | 16.91917 | -93.47500 | 38079 ft | 426 kts | 287° |
| 2026-05-04 13:26 | 16.93828 | -93.53354 | 38078 ft | 426 kts | 287° |
| 2026-05-04 13:26 | 16.95768 | -93.59192 | 38076 ft | 426 kts | 287° |
| 2026-05-04 13:27 | 16.97714 | -93.65034 | 38076 ft | 426 kts | 287° |
| 2026-05-04 13:27 | 16.99659 | -93.70886 | 38079 ft | 426 kts | 287° |
| 2026-05-04 13:28 | 17.01594 | -93.76730 | 38081 ft | 426 kts | 287° |
| 2026-05-04 13:28 | 17.03513 | -93.82538 | 38075 ft | 426 kts | 287° |
| 2026-05-04 13:29 | 17.05441 | -93.88387 | 38078 ft | 425 kts | 287° |
| 2026-05-04 13:29 | 17.07368 | -93.94232 | 38079 ft | 425 kts | 287° |
| 2026-05-04 13:30 | 17.09292 | -94.00069 | 38082 ft | 425 kts | 287° |
| 2026-05-04 13:30 | 17.11214 | -94.05912 | 38081 ft | 425 kts | 287° |
| 2026-05-04 13:31 | 17.13136 | -94.11747 | 38088 ft | 424 kts | 287° |
| 2026-05-04 13:31 | 17.15049 | -94.17581 | 38077 ft | 424 kts | 287° |
| 2026-05-04 13:32 | 17.16957 | -94.23413 | 38076 ft | 424 kts | 287° |
| 2026-05-04 13:32 | 17.18856 | -94.29200 | 38074 ft | 423 kts | 287° |
| 2026-05-04 13:33 | 17.20763 | -94.35021 | 38068 ft | 423 kts | 287° |
| 2026-05-04 13:33 | 17.22669 | -94.40848 | 38067 ft | 423 kts | 287° |
| 2026-05-04 13:34 | 17.24572 | -94.46671 | 38068 ft | 423 kts | 287° |
| 2026-05-04 13:34 | 17.26467 | -94.52490 | 38067 ft | 423 kts | 287° |
| 2026-05-04 13:35 | 17.29314 | -94.61223 | 38062 ft | 423 kts | 287° |
| 2026-05-04 13:36 | 17.31208 | -94.67039 | 38066 ft | 423 kts | 287° |
| 2026-05-04 13:36 | 17.33094 | -94.72826 | 38060 ft | 422 kts | 287° |
| 2026-05-04 13:37 | 17.34984 | -94.78638 | 38057 ft | 422 kts | 287° |
| 2026-05-04 13:37 | 17.36866 | -94.84464 | 38050 ft | 422 kts | 287° |
| 2026-05-04 13:38 | 17.38743 | -94.90277 | 38043 ft | 422 kts | 287° |
| 2026-05-04 13:38 | 17.40633 | -94.96098 | 38035 ft | 422 kts | 287° |
| 2026-05-04 13:39 | 17.42514 | -95.01914 | 38031 ft | 422 kts | 287° |
| 2026-05-04 13:39 | 17.44393 | -95.07741 | 38024 ft | 422 kts | 287° |
| 2026-05-04 13:40 | 17.46258 | -95.13530 | 38016 ft | 422 kts | 287° |
| 2026-05-04 13:40 | 17.48136 | -95.19358 | 38010 ft | 422 kts | 287° |
| 2026-05-04 13:41 | 17.50015 | -95.25195 | 38009 ft | 423 kts | 287° |
| 2026-05-04 13:41 | 17.51889 | -95.31034 | 37996 ft | 423 kts | 287° |
| 2026-05-04 13:42 | 17.54700 | -95.39797 | 37987 ft | 423 kts | 287° |
| 2026-05-04 13:42 | 17.56573 | -95.45645 | 37993 ft | 424 kts | 287° |
| 2026-05-04 13:43 | 17.58451 | -95.51502 | 37991 ft | 424 kts | 287° |
| 2026-05-04 13:43 | 17.60591 | -95.57252 | 37988 ft | 426 kts | 295° |
| 2026-05-04 13:44 | 17.63249 | -95.62760 | 37989 ft | 426 kts | 295° |
| 2026-05-04 13:44 | 17.65917 | -95.68303 | 37985 ft | 426 kts | 295° |
| 2026-05-04 13:45 | 17.68583 | -95.73859 | 37987 ft | 426 kts | 295° |
| 2026-05-04 13:45 | 17.71251 | -95.79412 | 37992 ft | 427 kts | 295° |
| 2026-05-04 13:46 | 17.73919 | -95.84978 | 37995 ft | 427 kts | 295° |
| 2026-05-04 13:46 | 17.76581 | -95.90538 | 37995 ft | 427 kts | 295° |
| 2026-05-04 13:47 | 17.79230 | -95.96070 | 37994 ft | 427 kts | 295° |
| 2026-05-04 13:47 | 17.81890 | -96.01633 | 37991 ft | 427 kts | 295° |
| 2026-05-04 13:48 | 17.84559 | -96.07208 | 37987 ft | 427 kts | 295° |
| 2026-05-04 13:48 | 17.87221 | -96.12779 | 37995 ft | 427 kts | 295° |
| 2026-05-04 13:49 | 17.89881 | -96.18355 | 37998 ft | 427 kts | 295° |
| 2026-05-04 13:49 | 17.92538 | -96.23939 | 37991 ft | 427 kts | 295° |
| 2026-05-04 13:50 | 17.95198 | -96.29529 | 38002 ft | 428 kts | 295° |
| 2026-05-04 13:50 | 17.97832 | -96.35080 | 38006 ft | 428 kts | 295° |
| 2026-05-04 13:51 | 18.00486 | -96.40671 | 37986 ft | 428 kts | 295° |
| 2026-05-04 13:51 | 18.03147 | -96.46271 | 37969 ft | 428 kts | 295° |
| 2026-05-04 13:52 | 18.07135 | -96.54674 | 37965 ft | 429 kts | 295° |
| 2026-05-04 13:53 | 18.09793 | -96.60275 | 37964 ft | 428 kts | 295° |
| 2026-05-04 13:53 | 18.12451 | -96.65894 | 37968 ft | 429 kts | 295° |
| 2026-05-04 13:54 | 18.16436 | -96.74334 | 37970 ft | 430 kts | 295° |
| 2026-05-04 13:55 | 18.20437 | -96.82786 | 37991 ft | 430 kts | 295° |
| 2026-05-04 13:55 | 18.24399 | -96.91206 | 37985 ft | 430 kts | 295° |
| 2026-05-04 13:56 | 18.27052 | -96.96845 | 37991 ft | 430 kts | 295° |
| 2026-05-04 13:57 | 18.31042 | -97.05311 | 38008 ft | 430 kts | 295° |
| 2026-05-04 13:58 | 18.36336 | -97.16608 | 38001 ft | 430 kts | 295° |
| 2026-05-04 13:58 | 18.40311 | -97.25062 | 38005 ft | 430 kts | 295° |
| 2026-05-04 13:59 | 18.42944 | -97.30664 | 38004 ft | 430 kts | 294° |
| 2026-05-04 14:00 | 18.46891 | -97.39145 | 38006 ft | 430 kts | 294° |
| 2026-05-04 14:00 | 18.50846 | -97.47604 | 38004 ft | 430 kts | 294° |
| 2026-05-04 14:01 | 18.53485 | -97.53255 | 38011 ft | 430 kts | 294° |
| 2026-05-04 14:02 | 18.57423 | -97.61695 | 38000 ft | 430 kts | 294° |
| 2026-05-04 14:02 | 18.59958 | -97.67394 | 37993 ft | 428 kts | 288° |
| 2026-05-04 14:03 | 18.61259 | -97.73489 | 37984 ft | 427 kts | 279° |
| 2026-05-04 14:03 | 18.62341 | -97.79643 | 37989 ft | 427 kts | 279° |
| 2026-05-04 14:04 | 18.63978 | -97.88884 | 37968 ft | 429 kts | 279° |
| 2026-05-04 14:04 | 18.65061 | -97.95027 | 37962 ft | 429 kts | 279° |
| 2026-05-04 14:05 | 18.66692 | -98.04322 | 37774 ft | 430 kts | 279° |
| 2026-05-04 14:05 | 18.67236 | -98.07459 | 36484 ft | 438 kts | 280° |
| 2026-05-04 14:06 | 18.67790 | -98.10657 | 34638 ft | 449 kts | 281° |
| 2026-05-04 14:06 | 18.68356 | -98.13922 | 32658 ft | 458 kts | 282° |
| 2026-05-04 14:06 | 18.68937 | -98.17256 | 30671 ft | 465 kts | 283° |
| 2026-05-04 14:06 | 18.69522 | -98.20620 | 28576 ft | 468 kts | 283° |
| 2026-05-04 14:07 | 18.70123 | -98.24000 | 26512 ft | 469 kts | 283° |
| 2026-05-04 14:07 | 18.70706 | -98.27317 | 24624 ft | 467 kts | 282° |
| 2026-05-04 14:07 | 18.71284 | -98.30685 | 22985 ft | 460 kts | 282° |
| 2026-05-04 14:07 | 18.71832 | -98.33917 | 22280 ft | 432 kts | 282° |
| 2026-05-04 14:08 | 18.72463 | -98.36876 | 22025 ft | 398 kts | 291° |
| 2026-05-04 14:08 | 18.73625 | -98.39439 | 21783 ft | 381 kts | 305° |
| 2026-05-04 14:08 | 18.75169 | -98.41672 | 21546 ft | 375 kts | 308° |
| 2026-05-04 14:08 | 18.76738 | -98.43868 | 21302 ft | 373 kts | 309° |
| 2026-05-04 14:09 | 18.79844 | -98.48182 | 20834 ft | 370 kts | 309° |
| 2026-05-04 14:09 | 18.81399 | -98.50338 | 20600 ft | 369 kts | 309° |
| 2026-05-04 14:10 | 18.84494 | -98.54646 | 20139 ft | 367 kts | 309° |
| 2026-05-04 14:10 | 18.86037 | -98.56789 | 19918 ft | 366 kts | 309° |
| 2026-05-04 14:10 | 18.87570 | -98.58918 | 19700 ft | 365 kts | 309° |
| 2026-05-04 14:10 | 18.89104 | -98.61050 | 19462 ft | 364 kts | 309° |
| 2026-05-04 14:11 | 18.90628 | -98.63177 | 19228 ft | 363 kts | 309° |
| 2026-05-04 14:11 | 18.93647 | -98.67402 | 18787 ft | 360 kts | 309° |
| 2026-05-04 14:11 | 18.95167 | -98.69526 | 18563 ft | 359 kts | 309° |
| 2026-05-04 14:12 | 18.96675 | -98.71630 | 18348 ft | 359 kts | 309° |
| 2026-05-04 14:12 | 18.98178 | -98.73729 | 18109 ft | 357 kts | 309° |
| 2026-05-04 14:12 | 19.01165 | -98.77904 | 17605 ft | 355 kts | 309° |
| 2026-05-04 14:13 | 19.02630 | -98.79952 | 17298 ft | 352 kts | 309° |
| 2026-05-04 14:13 | 19.04099 | -98.82007 | 16787 ft | 349 kts | 308° |
| 2026-05-04 14:13 | 19.05553 | -98.84046 | 16270 ft | 347 kts | 308° |
| 2026-05-04 14:13 | 19.07003 | -98.86079 | 15749 ft | 345 kts | 308° |
| 2026-05-04 14:14 | 19.07975 | -98.87441 | 15402 ft | 344 kts | 308° |
| 2026-05-04 14:14 | 19.10321 | -98.90729 | 14554 ft | 343 kts | 308° |
| 2026-05-04 14:14 | 19.11749 | -98.92728 | 14190 ft | 337 kts | 308° |
| 2026-05-04 14:15 | 19.14459 | -98.96524 | 14050 ft | 311 kts | 308° |
| 2026-05-04 14:15 | 19.16979 | -99.00055 | 13832 ft | 292 kts | 308° |
| 2026-05-04 14:16 | 19.19701 | -99.03106 | 13345 ft | 283 kts | 317° |
| 2026-05-04 14:16 | 19.21133 | -99.04527 | 13033 ft | 281 kts | 317° |
| 2026-05-04 14:17 | 19.23938 | -99.07310 | 12433 ft | 276 kts | 317° |
| 2026-05-04 14:17 | 19.25419 | -99.08601 | 12012 ft | 278 kts | 322° |
| 2026-05-04 14:17 | 19.28461 | -99.11109 | 11343 ft | 272 kts | 322° |
| 2026-05-04 14:18 | 19.29952 | -99.12329 | 10763 ft | 270 kts | 322° |
| 2026-05-04 14:18 | 19.32836 | -99.14693 | 9664 ft | 245 kts | 322° |
| 2026-05-04 14:19 | 19.35186 | -99.16632 | 9585 ft | 186 kts | 322° |
| 2026-05-04 14:19 | 19.36252 | -99.17201 | 9513 ft | 162 kts | 349° |
| 2026-05-04 14:19 | 19.37333 | -99.17128 | 9394 ft | 153 kts | 20° |
| 2026-05-04 14:19 | 19.38189 | -99.16534 | 9304 ft | 149 kts | 49° |
| 2026-05-04 14:20 | 19.38751 | -99.15621 | 9214 ft | 148 kts | 59° |
| 2026-05-04 14:20 | 19.39268 | -99.14701 | 9094 ft | 147 kts | 59° |
| 2026-05-04 14:20 | 19.39788 | -99.13776 | 8904 ft | 146 kts | 59° |
| 2026-05-04 14:21 | 19.40648 | -99.12245 | 8514 ft | 145 kts | 59° |
| 2026-05-04 14:21 | 19.41338 | -99.11017 | 8107 ft | 145 kts | 59° |
| 2026-05-04 14:21 | 19.41676 | -99.10413 | 7907 ft | 144 kts | 59° |
| 2026-05-04 14:21 | 19.42191 | -99.09497 | 7655 ft | 145 kts | 59° |
| 2026-05-04 14:22 | 19.42699 | -99.08585 | 7379 ft | 143 kts | 59° |
| 2026-05-04 14:22 | 19.43340 | -99.07433 | 7304 ft | 120 kts | 58° |
| 2026-05-04 14:22 | 19.43593 | -99.06991 | 7302 ft | 87 kts | 59° |
| 2026-05-04 14:22 | 19.43876 | -99.06527 | 7303 ft | 39 kts | 38° |
| 2026-05-04 14:23 | 19.44161 | -99.06362 | 7303 ft | 23 kts | 26° |
| 2026-05-04 14:23 | 19.44302 | -99.06296 | 7302 ft | 15 kts | 20° |
| 2026-05-04 14:23 | 19.44399 | -99.06318 | 7303 ft | 16 kts | 303° |
| 2026-05-04 14:24 | 19.44365 | -99.06426 | 7303 ft | 17 kts | 239° |
| 2026-05-04 14:24 | 19.44297 | -99.06544 | 7303 ft | 20 kts | 238° |
| 2026-05-04 14:24 | 19.44223 | -99.06681 | 7303 ft | 23 kts | 239° |
| 2026-05-04 14:24 | 19.44137 | -99.06831 | 7303 ft | 25 kts | 239° |
| 2026-05-04 14:25 | 19.44042 | -99.06999 | 7303 ft | 28 kts | 239° |
| 2026-05-04 14:25 | 19.43827 | -99.07384 | 7303 ft | 33 kts | 239° |
| 2026-05-04 14:25 | 19.43726 | -99.07564 | 7303 ft | 22 kts | 239° |
| 2026-05-04 14:26 | 19.43664 | -99.07672 | 7303 ft | 17 kts | 238° |
| 2026-05-04 14:26 | 19.43606 | -99.07778 | 7303 ft | 8 kts | 248° |
| 2026-05-04 14:26 | 19.43641 | -99.07819 | 7303 ft | 9 kts | 327° |
| 2026-05-04 14:26 | 19.43706 | -99.07861 | 7303 ft | 12 kts | 328° |
| 2026-05-04 14:27 | 19.43708 | -99.07918 | 7303 ft | 2 kts | 242° |
| 2026-05-04 14:27 | 19.43703 | -99.07928 | 7303 ft | 0 kts | 242° |